Time;durP1;ratioP1;P1;durP2;ratioP2;P2;SDS_P1;SDS_P2;PMS_P1;PMS_P2;Temp;Humidity;BMP_temperature;BMP_pressure;BME280_temperature;BME280_humidity;BME280_pressure;Samples;Min_cycle;Max_cycle;Signal;HPM_P1;HPM_P2
2023/07/03 00:00:18;;;;;;;25.42;5.70;;;;;;;17.47;76.52;100955.69;4997962;28;20106;-80
2023/07/03 00:02:46;;;;;;;8.85;3.25;;;;;;;17.46;76.29;100952.22;4997369;28;20061;-79
2023/07/03 00:05:12;;;;;;;16.75;3.83;;;;;;;17.48;76.22;100945.94;5002107;28;20209;-79
2023/07/03 00:07:39;;;;;;;21.42;5.03;;;;;;;17.48;76.24;100941.50;5016967;28;20088;-79
2023/07/03 00:10:05;;;;;;;12.77;3.47;;;;;;;17.46;76.43;100940.75;4986452;28;20061;-79
2023/07/03 00:12:31;;;;;;;14.18;3.90;;;;;;;17.45;76.32;100941.72;4995038;28;20022;-79
2023/07/03 00:14:57;;;;;;;14.45;3.97;;;;;;;17.44;76.46;100953.25;4997005;28;20275;-79
2023/07/03 00:17:22;;;;;;;17.77;4.55;;;;;;;17.43;76.75;100955.06;4997567;28;20093;-79
2023/07/03 00:19:48;;;;;;;9.43;3.65;;;;;;;17.43;76.62;100941.81;4996971;28;20241;-79
2023/07/03 00:22:13;;;;;;;7.78;3.38;;;;;;;17.44;76.59;100937.38;4997175;28;20033;-79
2023/07/03 00:24:39;;;;;;;30.25;6.45;;;;;;;17.42;77.30;100942.75;4997414;28;20045;-80
2023/07/03 00:27:05;;;;;;;23.63;4.68;;;;;;;17.40;77.71;100939.38;4997315;28;20038;-79
2023/07/03 00:29:32;;;;;;;24.25;5.25;;;;;;;17.37;77.65;100944.91;4996964;28;20037;-80
2023/07/03 00:31:58;;;;;;;17.50;4.35;;;;;;;17.36;77.90;100943.19;4996743;28;20034;-79
2023/07/03 00:34:24;;;;;;;17.35;3.85;;;;;;;17.36;77.89;100942.34;5007723;28;20415;-79
2023/07/03 00:36:50;;;;;;;25.30;5.10;;;;;;;17.36;77.86;100939.72;5016125;28;20042;-80
2023/07/03 00:39:15;;;;;;;31.98;6.05;;;;;;;17.35;78.08;100943.28;4992852;28;20173;-80
2023/07/03 00:41:42;;;;;;;14.85;3.33;;;;;;;17.33;78.11;100953.97;4996940;28;20260;-79
2023/07/03 00:44:12;;;;;;;11.63;4.10;;;;;;;17.34;78.22;100953.03;4996550;28;20222;-79
2023/07/03 00:46:39;;;;;;;8.68;3.25;;;;;;;17.34;77.94;100953.03;4994864;28;20026;-79
2023/07/03 00:49:05;;;;;;;16.73;4.80;;;;;;;17.35;78.05;100946.78;4996405;28;20247;-79
2023/07/03 00:51:30;;;;;;;16.77;4.35;;;;;;;17.36;77.91;100945.84;4996270;28;20397;-79
2023/07/03 00:53:56;;;;;;;28.15;5.18;;;;;;;17.37;78.29;100944.91;4996121;28;20046;-79
2023/07/03 00:56:21;;;;;;;16.23;4.05;;;;;;;17.36;78.33;100942.34;4996518;28;20042;-79
2023/07/03 00:58:47;;;;;;;20.67;4.28;;;;;;;17.34;78.49;100937.16;4994482;28;20057;-79
2023/07/03 01:01:21;;;;;;;29.30;5.88;;;;;;;17.34;78.52;100936.31;4996425;28;20038;-79
2023/07/03 01:03:53;;;;;;;14.85;4.22;;;;;;;17.33;78.55;100931.97;5002016;28;20061;-79
2023/07/03 01:06:23;;;;;;;20.50;4.95;;;;;;;17.31;78.86;100942.66;5015817;28;20363;-79
2023/07/03 01:08:58;;;;;;;20.77;4.88;;;;;;;17.31;79.14;100933.88;5012997;28;20388;-79
2023/07/03 01:11:24;;;;;;;17.98;4.38;;;;;;;17.30;78.88;100943.63;4996697;28;20058;-79
2023/07/03 01:13:54;;;;;;;13.75;3.53;;;;;;;17.31;78.60;100931.22;4995954;28;20335;-79
2023/07/03 01:16:20;;;;;;;10.75;3.13;;;;;;;17.33;78.54;100937.25;4994506;28;20037;-79
2023/07/03 01:18:48;;;;;;;12.65;3.40;;;;;;;17.33;78.61;100935.44;4995903;28;20037;-79
2023/07/03 01:21:29;;;;;;;9.10;3.28;;;;;;;17.34;78.42;100938.97;4996190;28;20042;-79
2023/07/03 01:24:04;;;;;;;11.77;3.40;;;;;;;17.34;78.24;100934.50;4995356;28;20226;-79
2023/07/03 01:26:31;;;;;;;9.75;3.28;;;;;;;17.35;78.39;100933.53;4996063;28;20467;-79
2023/07/03 01:29:00;;;;;;;8.38;3.22;;;;;;;17.36;78.22;100934.41;4995627;28;20072;-80
2023/07/03 01:31:27;;;;;;;9.80;3.30;;;;;;;17.36;78.18;100932.59;4995621;28;20030;-79
2023/07/03 01:33:55;;;;;;;9.83;2.90;;;;;;;17.37;78.18;100930.78;4997375;28;20101;-79
2023/07/03 01:36:22;;;;;;;8.17;2.83;;;;;;;17.36;78.13;100937.91;5015354;28;20264;-79
2023/07/03 01:38:49;;;;;;;10.60;3.10;;;;;;;17.35;78.09;100933.53;5008381;28;20030;-79
2023/07/03 01:41:17;;;;;;;8.02;2.95;;;;;;;17.36;77.75;100937.06;4984228;28;20046;-79
2023/07/03 01:43:44;;;;;;;7.93;2.57;;;;;;;17.32;77.51;100933.78;4995498;28;20044;-79
2023/07/03 01:46:10;;;;;;;10.15;2.78;;;;;;;17.33;77.69;100932.81;4995497;28;20037;-79
2023/07/03 01:48:36;;;;;;;10.50;2.70;;;;;;;17.32;77.32;100933.78;4995831;28;20030;-79
2023/07/03 01:51:03;;;;;;;5.88;2.15;;;;;;;17.33;77.36;100935.44;4996147;28;20195;-79
2023/07/03 01:53:54;;;;;;;8.48;2.72;;;;;;;17.32;77.11;100930.25;4995719;28;20345;-79
2023/07/03 01:56:25;;;;;;;10.38;3.35;;;;;;;17.32;77.08;100924.97;4995953;28;20072;-79
2023/07/03 01:59:07;;;;;;;7.25;2.47;;;;;;;17.31;76.81;100925.94;4995930;28;20041;-79
2023/07/03 02:01:48;;;;;;;5.57;2.33;;;;;;;17.29;76.31;100928.69;4995589;28;20038;-79
2023/07/03 02:04:26;;;;;;;8.45;3.08;;;;;;;17.29;75.94;100930.47;5005134;28;20037;-79
2023/07/03 02:06:52;;;;;;;7.53;2.80;;;;;;;17.26;75.90;100926.22;5014842;28;20687;-79
2023/07/03 02:09:18;;;;;;;4.82;2.33;;;;;;;17.24;74.47;100930.78;5009185;28;20347;-79
2023/07/03 02:11:46;;;;;;;5.15;2.70;;;;;;;17.22;73.63;100919.44;4995960;28;20399;-79
2023/07/03 02:14:12;;;;;;;7.82;2.65;;;;;;;17.20;73.63;100922.19;4996018;28;20302;-79
2023/07/03 02:16:41;;;;;;;6.43;2.97;;;;;;;17.18;72.25;100915.31;4995298;28;20046;-79
2023/07/03 02:19:08;;;;;;;9.93;3.17;;;;;;;17.12;69.44;100927.16;4995567;28;20054;-78
2023/07/03 02:21:35;;;;;;;6.70;3.15;;;;;;;17.11;70.37;100924.63;4995557;28;20061;-78
2023/07/03 02:24:01;;;;;;;5.00;2.58;;;;;;;17.10;70.54;100926.44;4995093;28;20034;-78
2023/07/03 02:26:27;;;;;;;5.32;2.50;;;;;;;17.09;70.72;100930.00;4995276;28;20057;-78
2023/07/03 02:28:52;;;;;;;5.85;2.70;;;;;;;17.09;70.88;100932.66;4995023;28;20038;-78
2023/07/03 02:31:18;;;;;;;4.15;2.63;;;;;;;17.07;70.62;100927.47;5000899;28;20091;-78
2023/07/03 02:33:43;;;;;;;3.67;2.25;;;;;;;17.05;70.18;100932.00;5009377;28;20345;-78
2023/07/03 02:36:09;;;;;;;3.15;1.80;;;;;;;17.03;69.83;100939.22;4998359;28;20038;-78
2023/07/03 02:38:34;;;;;;;3.75;1.90;;;;;;;17.02;69.72;100929.56;4997343;28;20100;-78
2023/07/03 02:41:01;;;;;;;3.67;1.75;;;;;;;16.96;66.83;100924.69;4998602;28;20085;-78
2023/07/03 02:43:27;;;;;;;3.80;1.50;;;;;;;16.95;67.02;100928.28;4998848;28;20081;-78
2023/07/03 02:45:52;;;;;;;1.77;1.20;;;;;;;16.94;66.61;100933.69;4998818;28;20349;-78
2023/07/03 02:48:17;;;;;;;1.90;1.20;;;;;;;16.90;66.70;100933.03;4998824;28;20211;-78
2023/07/03 02:50:43;;;;;;;5.75;1.98;;;;;;;16.88;65.25;100929.63;4998664;28;20034;-78
2023/07/03 02:53:08;;;;;;;2.28;1.10;;;;;;;16.88;66.16;100934.91;4998539;28;20045;-78
2023/07/03 02:55:34;;;;;;;4.45;1.58;;;;;;;16.87;66.25;100933.22;4998645;28;20038;-78
2023/07/03 02:57:59;;;;;;;3.28;1.38;;;;;;;16.85;66.32;100935.97;4996916;28;20242;-78
2023/07/03 03:00:25;;;;;;;1.73;1.13;;;;;;;16.84;66.34;100926.31;4998609;28;20034;-78
2023/07/03 03:02:50;;;;;;;1.92;0.88;;;;;;;16.82;66.05;100916.78;4996767;28;20249;-78
2023/07/03 03:05:16;;;;;;;4.95;1.48;;;;;;;16.78;63.71;100913.47;5005481;28;20042;-78
2023/07/03 03:07:41;;;;;;;2.47;1.10;;;;;;;16.76;64.70;100920.69;4991843;28;20034;-78
2023/07/03 03:10:07;;;;;;;3.60;0.98;;;;;;;16.76;64.44;100922.47;4997846;28;20050;-78
2023/07/03 03:12:32;;;;;;;2.97;1.10;;;;;;;16.74;64.93;100916.44;4990406;28;20030;-78
2023/07/03 03:14:58;;;;;;;1.13;0.88;;;;;;;16.73;65.35;100917.38;4997769;28;20243;-78
2023/07/03 03:17:24;;;;;;;2.20;0.98;;;;;;;16.73;65.74;100926.16;4998063;28;20360;-78
2023/07/03 03:19:49;;;;;;;7.68;1.25;;;;;;;16.68;62.30;100926.47;4997851;28;20409;-78
2023/07/03 03:22:15;;;;;;;3.13;1.35;;;;;;;16.67;63.92;100918.63;4998255;28;20054;-78
2023/07/03 03:24:40;;;;;;;3.13;1.20;;;;;;;16.66;63.87;100919.56;4997765;28;20106;-78
2023/07/03 03:27:06;;;;;;;3.47;1.10;;;;;;;16.63;63.26;100928.56;4997962;28;20042;-78
2023/07/03 03:29:33;;;;;;;4.30;1.38;;;;;;;16.63;63.52;100931.19;4997933;28;20040;-78
2023/07/03 03:31:59;;;;;;;3.95;1.40;;;;;;;16.59;62.99;100927.06;4998123;28;20365;-78
2023/07/03 03:34:25;;;;;;;3.72;1.20;;;;;;;16.61;63.75;100926.97;5008582;28;20204;-78
2023/07/03 03:36:50;;;;;;;2.38;1.00;;;;;;;16.60;64.30;100917.34;4999050;28;20033;-78
2023/07/03 03:39:15;;;;;;;3.65;1.40;;;;;;;16.59;64.12;100924.44;5011444;28;20237;-78
2023/07/03 03:41:41;;;;;;;5.35;1.40;;;;;;;16.57;63.74;100922.81;4997462;28;20098;-77
2023/07/03 03:44:06;;;;;;;3.70;1.38;;;;;;;16.57;64.02;100936.03;4993995;28;20096;-78
2023/07/03 03:46:32;;;;;;;2.22;1.10;;;;;;;16.55;64.12;100927.34;4997452;28;20030;-78
2023/07/03 03:48:57;;;;;;;2.85;1.00;;;;;;;16.55;64.51;100930.84;4997732;28;20042;-78
2023/07/03 03:51:23;;;;;;;5.45;1.80;;;;;;;16.54;64.50;100931.81;4997772;28;20328;-78
2023/07/03 03:53:48;;;;;;;3.03;0.88;;;;;;;16.53;64.46;100931.91;4997478;28;20034;-78
2023/07/03 03:56:14;;;;;;;2.03;1.00;;;;;;;16.50;63.48;100928.50;4997994;28;20041;-78
2023/07/03 03:58:39;;;;;;;4.80;1.02;;;;;;;16.47;63.69;100930.50;4978209;28;20022;-78
2023/07/03 04:01:05;;;;;;;3.17;1.42;;;;;;;16.45;64.60;100927.94;4977753;28;20039;-78
2023/07/03 04:03:30;;;;;;;2.30;1.00;;;;;;;16.46;64.37;100929.66;4999093;28;20033;-78
2023/07/03 04:05:56;;;;;;;3.78;1.55;;;;;;;16.44;64.26;100926.22;5016885;28;20042;-78
2023/07/03 04:08:21;;;;;;;2.33;1.05;;;;;;;16.42;64.31;100922.84;4999071;28;20282;-78
2023/07/03 04:10:47;;;;;;;2.17;1.10;;;;;;;16.41;64.18;100923.81;4977108;28;20051;-78
2023/07/03 04:13:12;;;;;;;3.53;1.50;;;;;;;16.40;64.30;100932.66;4993280;28;20341;-78
2023/07/03 04:15:58;;;;;;;4.20;1.52;;;;;;;16.40;64.30;100927.38;4996868;28;20034;-78
2023/07/03 04:18:24;;;;;;;4.88;1.48;;;;;;;16.40;64.57;100929.19;4997321;28;20131;-78
2023/07/03 04:20:50;;;;;;;1.73;1.00;;;;;;;16.39;64.67;100935.41;4996725;28;20277;-78
2023/07/03 04:23:16;;;;;;;1.77;0.90;;;;;;;16.37;64.59;100940.81;4997260;28;20112;-78
2023/07/03 04:25:44;;;;;;;1.48;0.98;;;;;;;16.37;64.98;100938.19;4997087;28;20096;-78
2023/07/03 04:28:11;;;;;;;3.58;1.23;;;;;;;16.37;64.94;100932.03;4996573;28;20038;-78
2023/07/03 04:30:37;;;;;;;4.68;1.25;;;;;;;16.33;64.15;100936.66;4996565;28;20034;-78
2023/07/03 04:33:02;;;;;;;2.65;1.20;;;;;;;16.33;64.55;100935.81;4996750;28;20222;-78
2023/07/03 04:35:28;;;;;;;2.22;1.20;;;;;;;16.34;65.08;100943.66;4998156;28;20348;-78
2023/07/03 04:37:53;;;;;;;2.08;1.23;;;;;;;16.34;65.04;100954.22;5015739;28;20052;-78
2023/07/03 04:40:19;;;;;;;2.88;1.48;;;;;;;16.35;65.23;100945.31;5001833;28;20286;-78
2023/07/03 04:42:45;;;;;;;2.95;1.40;;;;;;;16.35;65.59;100947.13;4996470;28;20042;-78
2023/07/03 04:45:11;;;;;;;4.25;1.45;;;;;;;16.33;64.93;100935.81;4996083;28;20046;-78
2023/07/03 04:47:39;;;;;;;3.03;1.13;;;;;;;16.31;64.96;100938.53;4995046;28;20068;-78
2023/07/03 04:50:13;;;;;;;1.63;1.10;;;;;;;16.30;65.32;100939.50;4996503;28;20172;-78
2023/07/03 04:52:39;;;;;;;2.70;1.23;;;;;;;16.31;65.64;100942.03;4994948;28;20251;-78
2023/07/03 04:55:07;;;;;;;2.45;1.30;;;;;;;16.32;65.79;100942.91;4996131;28;20085;-78
2023/07/03 04:57:33;;;;;;;2.42;1.25;;;;;;;16.30;65.38;100939.50;4995825;28;20113;-78
2023/07/03 05:00:00;;;;;;;3.75;1.60;;;;;;;16.30;65.70;100942.16;4996043;28;20034;-78
2023/07/03 05:02:26;;;;;;;2.33;1.17;;;;;;;16.31;66.04;100955.25;4996368;28;20419;-78
2023/07/03 05:04:51;;;;;;;2.55;1.15;;;;;;;16.33;66.26;100949.03;5010308;28;20042;-78
2023/07/03 05:07:19;;;;;;;2.90;1.13;;;;;;;16.33;66.54;100949.03;5015786;28;20041;-78
2023/07/03 05:09:44;;;;;;;1.42;0.90;;;;;;;16.34;66.52;100953.38;5005672;28;20057;-78
2023/07/03 05:12:09;;;;;;;2.83;1.05;;;;;;;16.33;66.46;100956.94;4995778;28;20037;-78
2023/07/03 05:14:35;;;;;;;2.67;1.10;;;;;;;16.33;66.13;100952.50;4995945;28;20054;-78
2023/07/03 05:17:02;;;;;;;6.07;1.60;;;;;;;16.33;66.44;100963.06;4995907;28;20249;-78
2023/07/03 05:19:28;;;;;;;2.38;1.10;;;;;;;16.32;66.17;100953.47;4994549;28;20355;-78
2023/07/03 05:21:53;;;;;;;4.68;1.10;;;;;;;16.32;66.19;100953.47;4994341;28;20039;-78
2023/07/03 05:24:19;;;;;;;2.47;1.15;;;;;;;16.33;66.50;100959.59;4995995;28;20294;-78
2023/07/03 05:26:44;;;;;;;3.53;1.40;;;;;;;16.33;66.50;100956.94;4994627;28;20034;-78
2023/07/03 05:29:10;;;;;;;1.80;0.88;;;;;;;16.33;67.01;100971.00;5012890;28;20046;-78
2023/07/03 05:31:35;;;;;;;5.10;1.55;;;;;;;16.34;66.69;100971.88;5015652;28;20029;-78
2023/07/03 05:34:01;;;;;;;2.90;1.30;;;;;;;16.33;66.92;100972.81;5005159;28;20038;-78
2023/07/03 05:36:26;;;;;;;2.13;0.98;;;;;;;16.33;66.83;100976.28;5015444;28;20042;-78
2023/07/03 05:38:52;;;;;;;2.50;1.30;;;;;;;16.34;66.61;100985.09;5011956;28;20034;-78
2023/07/03 05:41:17;;;;;;;4.78;1.65;;;;;;;16.33;66.76;100978.94;4995525;28;20040;-78
2023/07/03 05:43:43;;;;;;;3.45;1.65;;;;;;;16.33;66.52;100976.28;5009761;28;20350;-78
2023/07/03 05:46:08;;;;;;;3.45;1.55;;;;;;;16.31;66.80;100967.63;4997276;28;20038;-78
2023/07/03 05:48:34;;;;;;;3.22;1.20;;;;;;;16.33;66.69;100972.81;5015098;28;20057;-78
2023/07/03 05:50:59;;;;;;;3.80;1.33;;;;;;;16.33;66.84;100971.00;5014925;28;20034;-78
2023/07/03 05:53:24;;;;;;;3.35;1.30;;;;;;;16.34;67.06;100963.94;5014933;28;20099;-78
2023/07/03 05:55:57;;;;;;;3.00;1.38;;;;;;;16.34;67.06;100963.94;5014749;28;20037;-78
2023/07/03 05:58:23;;;;;;;3.92;1.45;;;;;;;16.34;67.04;100969.22;5014925;28;20053;-78
2023/07/03 06:00:49;;;;;;;2.40;1.02;;;;;;;16.35;66.84;100966.47;5014999;28;20060;-78
2023/07/03 06:03:15;;;;;;;4.35;1.20;;;;;;;16.36;67.00;100970.81;5013159;28;20057;-78
2023/07/03 06:05:41;;;;;;;2.03;1.00;;;;;;;16.36;66.60;100965.53;4995433;28;20034;-78
2023/07/03 06:08:07;;;;;;;1.80;1.02;;;;;;;16.37;66.60;100969.03;4995324;28;20042;-78
2023/07/03 06:10:32;;;;;;;3.72;1.20;;;;;;;16.38;66.79;100971.56;4997634;28;20273;-78
2023/07/03 06:12:58;;;;;;;1.63;0.90;;;;;;;16.39;66.68;100970.63;4984787;28;20030;-78
2023/07/03 06:15:23;;;;;;;5.20;1.20;;;;;;;16.40;66.79;100977.59;4999142;28;20034;-78
2023/07/03 06:17:49;;;;;;;4.72;1.30;;;;;;;16.41;66.96;100973.16;4998896;28;20042;-78
2023/07/03 06:20:14;;;;;;;2.58;1.10;;;;;;;16.41;66.93;100976.66;4998086;28;20054;-78
2023/07/03 06:22:41;;;;;;;2.97;1.00;;;;;;;16.42;67.06;100977.50;4998947;28;20049;-78
2023/07/03 06:25:07;;;;;;;3.08;1.17;;;;;;;16.41;66.92;100976.66;4997340;28;20072;-78
2023/07/03 06:27:33;;;;;;;5.85;1.45;;;;;;;16.42;66.22;100977.50;4999247;28;20309;-78
2023/07/03 06:29:58;;;;;;;7.53;1.45;;;;;;;16.43;66.18;100979.22;4998866;28;20057;-77
2023/07/03 06:32:24;;;;;;;2.40;1.10;;;;;;;16.44;66.38;100975.63;4999048;28;20089;-77
2023/07/03 06:34:49;;;;;;;4.38;1.40;;;;;;;16.45;66.35;100987.91;5000653;28;20037;-78
2023/07/03 06:37:14;;;;;;;5.25;1.50;;;;;;;16.45;66.35;100978.16;5018765;28;20237;-78
2023/07/03 06:39:40;;;;;;;2.85;1.35;;;;;;;16.46;66.35;100979.88;5008859;28;20137;-77
2023/07/03 06:42:06;;;;;;;2.67;1.10;;;;;;;16.49;66.32;100986.75;4998591;28;20030;-78
2023/07/03 06:44:31;;;;;;;4.65;1.60;;;;;;;16.48;66.06;100988.56;4998693;28;20045;-77
2023/07/03 06:46:56;;;;;;;3.95;1.30;;;;;;;16.50;66.17;100991.09;4998338;28;20034;-77
2023/07/03 06:49:24;;;;;;;3.78;1.30;;;;;;;16.50;66.35;100991.94;4979736;28;20377;-78
2023/07/03 06:51:50;;;;;;;2.08;0.85;;;;;;;16.51;66.34;100996.28;4997434;28;20251;-78
2023/07/03 06:54:16;;;;;;;4.07;1.17;;;;;;;16.52;66.48;100981.28;4998979;28;20038;-78
2023/07/03 06:56:41;;;;;;;3.55;1.52;;;;;;;16.55;66.67;100986.34;4996956;28;20038;-78
2023/07/03 06:59:07;;;;;;;7.93;1.98;;;;;;;16.57;66.91;100980.97;4997059;28;20053;-78
2023/07/03 07:01:32;;;;;;;4.55;1.67;;;;;;;16.57;66.76;100992.41;4996913;28;20041;-78
2023/07/03 07:03:57;;;;;;;3.83;1.40;;;;;;;16.59;67.24;100985.22;4981717;28;20105;-78
2023/07/03 07:06:26;;;;;;;14.98;2.10;;;;;;;16.59;67.15;100982.59;4997096;28;20041;-77
2023/07/03 07:08:52;;;;;;;7.35;1.85;;;;;;;16.61;67.39;100998.38;4995498;28;20349;-78
2023/07/03 07:11:24;;;;;;;7.13;2.03;;;;;;;16.62;67.20;100990.31;4992969;28;20046;-77
2023/07/03 07:13:50;;;;;;;4.32;1.35;;;;;;;16.62;67.00;100990.31;4988205;28;20129;-78
2023/07/03 07:16:21;;;;;;;5.75;1.88;;;;;;;16.63;67.23;100997.31;4992053;28;20042;-78
2023/07/03 07:18:51;;;;;;;5.40;2.08;;;;;;;16.66;66.90;100998.91;4979086;28;20039;-77
2023/07/03 07:21:17;;;;;;;4.60;1.10;;;;;;;16.67;66.93;101003.25;4997745;28;20038;-77
2023/07/03 07:23:42;;;;;;;2.30;1.30;;;;;;;16.69;66.62;100996.06;4997994;28;20061;-78
2023/07/03 07:26:08;;;;;;;3.97;1.13;;;;;;;16.72;66.62;100997.66;4997809;28;20034;-77
2023/07/03 07:28:33;;;;;;;7.07;1.40;;;;;;;16.72;65.91;101003.81;4983449;28;20037;-78
2023/07/03 07:30:58;;;;;;;6.13;1.75;;;;;;;16.76;65.90;101002.66;4996095;28;20036;-78
2023/07/03 07:33:24;;;;;;;3.22;1.20;;;;;;;16.78;66.09;101008.69;4999621;28;20048;-77
2023/07/03 07:35:50;;;;;;;5.30;1.92;;;;;;;16.78;65.03;101005.22;5008099;28;20057;-78
2023/07/03 07:38:16;;;;;;;5.10;1.10;;;;;;;16.76;65.47;101004.47;4996731;28;20061;-77
2023/07/03 07:40:43;;;;;;;1.58;0.77;;;;;;;16.77;65.48;101017.59;4996268;28;20073;-78
2023/07/03 07:43:08;;;;;;;3.97;1.30;;;;;;;16.78;65.34;101007.84;5008436;28;20275;-78
2023/07/03 07:45:34;;;;;;;7.35;1.60;;;;;;;16.80;65.32;101005.97;4996933;28;20097;-78
2023/07/03 07:47:59;;;;;;;4.65;1.10;;;;;;;16.82;65.17;101012.84;4996098;28;20220;-78
2023/07/03 07:50:25;;;;;;;5.40;1.38;;;;;;;16.82;65.31;101018.13;4982938;28;20089;-78
2023/07/03 07:52:50;;;;;;;4.38;1.52;;;;;;;16.82;65.01;101017.28;4979336;28;20033;-78
2023/07/03 07:55:17;;;;;;;6.70;1.27;;;;;;;16.81;65.42;101019.09;4996128;28;20034;-78
2023/07/03 07:57:42;;;;;;;5.07;1.50;;;;;;;16.80;64.94;101020.03;4978301;28;20052;-78
2023/07/03 08:00:08;;;;;;;9.05;1.63;;;;;;;16.80;65.27;101022.66;4996058;28;20337;-78
2023/07/03 08:02:34;;;;;;;3.63;1.50;;;;;;;16.78;65.04;101021.91;4995860;28;20042;-78
2023/07/03 08:05:00;;;;;;;5.68;1.13;;;;;;;16.78;65.42;101032.50;5005773;28;20037;-78
2023/07/03 08:07:25;;;;;;;4.50;1.20;;;;;;;16.79;65.34;101034.22;4996589;28;20049;-78
2023/07/03 08:09:50;;;;;;;3.90;1.20;;;;;;;16.81;65.31;101023.53;4996457;28;20036;-78
2023/07/03 08:12:16;;;;;;;8.40;1.42;;;;;;;16.85;65.42;101023.25;4995197;28;20368;-77
2023/07/03 08:14:41;;;;;;;2.35;1.20;;;;;;;16.86;65.63;101027.63;4994607;28;20085;-77
2023/07/03 08:17:07;;;;;;;6.13;1.65;;;;;;;16.89;65.87;101030.03;5012528;28;20064;-78
2023/07/03 08:19:32;;;;;;;4.93;1.65;;;;;;;16.91;65.86;101037.88;4996713;28;20050;-77
2023/07/03 08:21:58;;;;;;;2.28;1.25;;;;;;;16.91;66.08;101040.53;4996988;28;20365;-78
2023/07/03 08:24:23;;;;;;;2.05;0.98;;;;;;;16.92;66.19;101044.00;4994343;28;20048;-78
2023/07/03 08:26:50;;;;;;;2.97;1.05;;;;;;;16.93;66.08;101040.44;4979985;28;20038;-77
2023/07/03 08:29:16;;;;;;;3.20;1.17;;;;;;;16.94;66.30;101028.91;4994188;28;20105;-78
2023/07/03 08:31:41;;;;;;;4.32;1.08;;;;;;;16.93;66.30;101035.16;4995451;28;20041;-78
2023/07/03 08:34:09;;;;;;;10.18;1.88;;;;;;;16.93;66.23;101041.28;4994004;28;20041;-78
2023/07/03 08:36:35;;;;;;;2.58;1.17;;;;;;;16.92;66.18;101047.53;4996072;28;20038;-78
2023/07/03 08:39:01;;;;;;;8.52;2.03;;;;;;;16.91;66.41;101039.69;4995518;28;20080;-78
2023/07/03 08:41:27;;;;;;;5.32;1.40;;;;;;;16.90;66.18;101046.78;4996228;28;20034;-78
2023/07/03 08:43:56;;;;;;;9.23;1.90;;;;;;;16.89;66.59;101048.56;4995982;28;20150;-78
2023/07/03 08:46:25;;;;;;;9.65;2.05;;;;;;;16.88;66.45;101046.00;4978726;28;20037;-78
2023/07/03 08:48:54;;;;;;;4.72;1.45;;;;;;;16.87;66.40;101037.22;4993032;28;20038;-78
2023/07/03 08:51:23;;;;;;;5.68;1.80;;;;;;;16.86;66.14;101043.47;4994003;28;20030;-78
2023/07/03 08:53:54;;;;;;;7.07;1.92;;;;;;;16.85;66.38;101040.94;4995260;28;20218;-78
2023/07/03 08:56:24;;;;;;;3.90;1.45;;;;;;;16.85;66.55;101044.41;4983837;28;20349;-77
2023/07/03 08:58:51;;;;;;;3.15;1.13;;;;;;;16.85;66.63;101046.22;4994855;28;20030;-77
2023/07/03 09:01:35;;;;;;;3.65;1.48;;;;;;;16.83;66.80;101046.31;4976407;28;20035;-78
2023/07/03 09:04:22;;;;;;;3.63;1.20;;;;;;;16.83;67.19;101051.59;4982790;28;20416;-78
2023/07/03 09:06:56;;;;;;;5.18;1.80;;;;;;;16.83;67.04;101053.41;4994872;28;20065;-78
2023/07/03 09:09:49;;;;;;;4.50;1.20;;;;;;;16.83;67.31;101056.91;4994766;28;20042;-78
2023/07/03 09:12:36;;;;;;;4.00;1.27;;;;;;;16.84;67.22;101065.66;4995651;28;20066;-78
2023/07/03 09:15:30;;;;;;;9.27;2.10;;;;;;;16.83;67.53;101058.69;4987613;28;20045;-78
2023/07/03 09:17:58;;;;;;;6.88;2.00;;;;;;;16.82;68.15;101064.88;4985498;28;20046;-78
2023/07/03 09:20:25;;;;;;;5.70;1.65;;;;;;;16.81;68.17;101061.41;4978518;28;20053;-78
2023/07/03 09:23:00;;;;;;;5.25;1.52;;;;;;;16.84;68.01;101070.97;4994688;28;20053;-77
2023/07/03 09:25:39;;;;;;;7.60;2.53;;;;;;;16.82;67.74;101060.44;4995570;28;20245;-78
2023/07/03 09:28:07;;;;;;;5.72;1.90;;;;;;;16.81;67.76;101065.84;4995020;28;20033;-78
2023/07/03 09:30:32;;;;;;;5.57;2.00;;;;;;;16.81;67.95;101055.28;4989557;28;20042;-78
2023/07/03 09:32:58;;;;;;;4.00;1.73;;;;;;;16.81;68.07;101064.06;4984906;28;20034;-78
2023/07/03 09:35:34;;;;;;;5.18;1.52;;;;;;;16.83;68.11;101054.25;4987071;28;20101;-78
2023/07/03 09:38:01;;;;;;;4.60;1.90;;;;;;;16.88;68.34;101062.75;4990112;28;20229;-78
2023/07/03 09:40:31;;;;;;;4.95;1.92;;;;;;;16.94;68.15;101048.28;4989649;28;20058;-78
2023/07/03 09:42:57;;;;;;;5.97;1.63;;;;;;;16.99;68.71;101048.84;4986889;28;20345;-78
2023/07/03 09:45:28;;;;;;;4.90;1.75;;;;;;;17.01;68.35;101057.53;4985917;28;20286;-77
2023/07/03 09:47:57;;;;;;;4.65;1.58;;;;;;;17.02;68.30;101053.91;4966352;28;20026;-77
2023/07/03 09:50:35;;;;;;;;;;;;;;;17.04;68.29;101059.94;4987723;28;20046;-78
2023/07/03 09:53:02;;;;;;;7.77;2.37;;;;;;;17.04;67.58;101057.31;4968284;28;19934;-77
2023/07/03 09:55:28;;;;;;;11.43;1.88;;;;;;;17.07;67.23;101045.69;4987187;28;20503;-78
2023/07/03 09:57:54;;;;;;;7.15;1.55;;;;;;;17.10;67.33;101058.72;4985367;28;20088;-78
2023/07/03 10:00:22;;;;;;;4.15;1.55;;;;;;;17.13;67.30;101062.97;4990280;28;20040;-78
2023/07/03 10:02:55;;;;;;;6.00;1.77;;;;;;;17.14;67.31;101075.25;4986216;28;20061;-78
2023/07/03 10:05:31;;;;;;;9.55;1.50;;;;;;;17.14;66.97;101067.31;4990044;28;20037;-78
2023/07/03 10:08:01;;;;;;;7.45;1.90;;;;;;;17.14;66.49;101068.16;4966779;28;20027;-78
2023/07/03 10:10:28;;;;;;;8.00;1.88;;;;;;;17.13;66.45;101078.84;4984769;28;20093;-78
2023/07/03 10:13:07;;;;;;;11.43;1.70;;;;;;;17.12;66.37;101071.84;4985035;28;20022;-78
2023/07/03 10:15:38;;;;;;;9.80;1.98;;;;;;;17.11;66.24;101081.56;4971061;28;20118;-78
2023/07/03 10:18:11;;;;;;;6.93;1.92;;;;;;;17.09;66.08;101083.47;4983403;28;20329;-78
2023/07/03 10:20:42;;;;;;;9.13;1.88;;;;;;;17.07;66.51;101104.75;4984598;28;20038;-78
2023/07/03 10:23:10;;;;;;;20.90;3.10;;;;;;;17.05;66.43;101103.16;4987364;28;20038;-78
2023/07/03 10:25:44;;;;;;;3.63;1.60;;;;;;;17.03;66.66;101100.59;4986584;28;20053;-78
2023/07/03 10:28:21;;;;;;;9.40;2.30;;;;;;;17.01;67.03;101102.50;4968258;28;20032;-78
2023/07/03 10:30:49;;;;;;;4.57;1.67;;;;;;;17.00;67.52;101095.50;4985906;28;20043;-78
2023/07/03 10:33:18;;;;;;;4.28;1.80;;;;;;;17.01;67.50;101096.38;4987895;28;20057;-78
2023/07/03 10:35:49;;;;;;;7.20;1.77;;;;;;;17.05;67.48;101093.41;4991725;28;20041;-78
2023/07/03 10:38:31;;;;;;;7.97;2.13;;;;;;;17.09;67.61;101094.06;4987417;28;20034;-78
2023/07/03 10:41:28;;;;;;;14.65;2.67;;;;;;;17.14;67.64;101093.78;4987228;28;20058;-79
2023/07/03 10:44:10;;;;;;;23.38;2.10;;;;;;;17.14;67.47;101093.78;4987482;28;20046;-78
2023/07/03 10:46:44;;;;;;;14.85;2.10;;;;;;;17.16;67.14;101092.72;4983429;28;20113;-77
2023/07/03 10:49:20;;;;;;;7.47;2.05;;;;;;;17.20;67.43;101103.97;4988491;28;20034;-78
2023/07/03 10:51:55;;;;;;;2.55;1.10;;;;;;;17.23;66.92;101099.31;4987861;28;20023;-78
2023/07/03 10:54:30;;;;;;;7.95;1.77;;;;;;;17.21;64.66;101103.88;4993926;28;20265;-77
2023/07/03 10:56:58;;;;;;;3.42;1.15;;;;;;;17.24;65.14;101111.59;4977855;28;20038;-77
2023/07/03 10:59:28;;;;;;;7.15;1.40;;;;;;;17.27;65.23;101092.03;4991474;28;20109;-78
2023/07/03 11:02:02;;;;;;;9.18;1.27;;;;;;;17.30;64.62;101102.44;4998441;28;20375;-77
2023/07/03 11:04:57;;;;;;;6.22;1.45;;;;;;;17.36;64.35;101095.88;5008624;28;20045;-77
2023/07/03 11:07:37;;;;;;;6.50;1.40;;;;;;;17.38;63.93;101089.53;5018206;28;20344;-78
2023/07/03 11:10:30;;;;;;;8.30;1.67;;;;;;;17.40;63.45;101092.91;5004516;28;20099;-77
2023/07/03 11:13:01;;;;;;;5.30;1.55;;;;;;;17.41;63.57;101096.44;4997855;28;20600;-77
2023/07/03 11:15:29;;;;;;;4.80;1.23;;;;;;;17.41;63.65;101109.69;4997655;28;20034;-78
2023/07/03 11:17:55;;;;;;;4.63;1.10;;;;;;;17.40;63.88;101089.44;4997826;28;20092;-78
2023/07/03 11:20:27;;;;;;;3.63;1.10;;;;;;;17.41;63.79;101102.56;4997910;28;20030;-78
2023/07/03 11:23:19;;;;;;;4.47;1.45;;;;;;;17.43;64.01;101102.47;4997621;28;20057;-78
2023/07/03 11:25:53;;;;;;;2.20;0.93;;;;;;;17.41;64.28;101097.28;4991209;28;20270;-78
2023/07/03 11:28:25;;;;;;;4.35;1.25;;;;;;;17.40;63.80;101106.16;4997836;28;20045;-78